Tiempo atmosférico en la estación meteorológica de Agulo, Santa Cruz de Tenerife (765 m.)



Fecha
DESCASC
Temp. máxima en grados centígrados (hora)
DESCASC
Temp. mínima en grados centígrados (hora)
DESCASC
Temp. media en grados centígrados
DESCASC
Racha de viento máxima en m/sg (hora)
DESCASC
Velocidad máxima media en intervalos de 10 minutos(hora)
DESCASC
Precipitaciones diarias en mm
DESCASC
Precipitaciones de 00:00 a 06:00 en mm
DESCASC
Precipitaciones de 06:00 a 12:00 en mm
DESCASC
Precipitaciones de 12:00 a 18:00 en mm
DESCASC
Precipitaciones de 18:00 a 24:00 en mm
DESCASC
02-08-2020 26.3 (14:40) 16.9 (07:50) 21.6 7.5 (08:50) 2.78 (08:50) 0 0 0 0 0
01-08-2020 25.3 (16:40) 16.1 (06:50) 20.7 5 (23:59) 2.22 (06:20) 0 0 0 0 0
31-07-2020 20.3 (15:20) 15.6 (03:40) 17.9 4.72 (10:40) 2.22 (10:40) 0 0 0 0 0
30-07-2020 21.9 (14:30) 15.2 (00:00) 18.5 7.78 (13:20) 3.33 (14:20) 0 0 0 0 0
29-07-2020 20.7 (17:00) 15.4 (00:00) 18.1 6.39 (15:10) 1.94 (10:50) 0 0 0 0 0
28-07-2020 20 (15:40) 15.9 (07:50) 17.9 6.11 (23:00) 2.22 (10:00) 0 0 0 0 0
27-07-2020 20.4 (16:20) 15.4 (00:00) 17.9 5 (11:40) 2.5 (13:20) 0 0 0 0 0
26-07-2020 21.6 (15:20) 15.8 (00:00) 18.7 6.67 (05:50) 2.5 (05:50) 0 0 0 0 0
25-07-2020 21.6 (16:30) 15.1 (04:50) 18.4 6.11 (03:30) 2.22 (07:50) 0 0 0 0 0
24-07-2020 20.5 (15:10) 15.1 (00:00) 17.8 4.44 (18:00) 1.94 (17:20) 0 0 0 0 0
23-07-2020 20.1 (14:40) 15.7 (00:00) 17.9 4.72 (12:10) 1.67 (12:10) 0 0 0 0 0
22-07-2020 20.6 (14:00) 15.8 (03:10) 18.2 6.11 (14:00) 3.06 (13:30) 0 0 0 0 0
21-07-2020 21.4 (16:10) 15.2 (00:00) 18.3 6.39 (12:20) 3.33 (13:10) 0 0 0 0 0
20-07-2020 22.1 (14:20) 16.3 (23:59) 19.2 6.67 (01:00) 3.06 (04:00) 0 0 0 0 0
19-07-2020 30.7 (15:50) 21.2 (00:00) 26 5.83 (01:50) 2.78 (01:50) 0 0 0 0 0
18-07-2020 32.1 (15:10) 21.6 (00:00) 26.8 5.83 (20:30) 2.5 (05:30) 0 0 0 0 0
17-07-2020 28.9 (16:10) 19.5 (00:00) 24.2 4.17 (00:10) 3.33 (00:20) 0 0 0 0 0
16-07-2020 24.9 (18:10) 14.4 (00:00) 19.6 4.72 (14:30) 2.78 (22:10) 0 0 0 0 0
15-07-2020 19.1 (13:00) 15.1 (06:00) 17.1 6.11 (01:30) 1.94 (01:00) 0 0 0 0 0
14-07-2020 19.3 (14:50) 14.7 (00:00) 17 5 (13:00) 1.94 (13:00) 0 0 0 0 0
13-07-2020 24.7 (16:40) 14.4 (05:50) 19.6 4.17 (22:40) 2.22 (12:30) 0 0 0 0 0
12-07-2020 23.5 (16:30) 15.3 (07:50) 19.4 4.44 (01:50) 2.5 (02:00) 0 0 0 0 0
11-07-2020 20.4 (16:10) 15.3 (04:50) 17.8 6.67 (00:50) 2.5 (16:00) 0 0 0 0 0
10-07-2020 22 (14:20) 15.4 (00:00) 18.7 5.56 (19:40) 2.78 (16:50) 0 0 0 0 0
09-07-2020 33.8 (19:00) 15.9 (23:30) 24.8 8.33 (00:30) 4.17 (00:30) 0 0 0 0 0
08-07-2020 34.4 (19:00) 23.3 (23:50) 28.9 8.06 (23:59) 3.33 (21:30) 0 0 0 0 0

Gráficas

Temp. máximas Temp. mínimas Temp. medias Precipitaciones Rachas de viento máximas Velocidades máximas media en intervalos de 10 minutos

Datos horarios

Fecha y hora oficial Temperatura (ºC) Velocidad del viento (km/h) Dirección del viento Racha (km/h) Dirección de racha Precipitación (mm) Presión (hPa) Tendencia (hPa) Humedad (%)
2020-08-06 23:00:00 17.2 5 Este 14 Nordeste 0 -- -- 94
2020-08-06 22:00:00 17.2 8 Sudeste 14 Este 0 -- -- 94
2020-08-06 21:00:00 17.2 4 Este 15 Nordeste 0 -- -- 93
2020-08-06 20:00:00 17.6 5 Nordeste 19 Nordeste 0 -- -- 92
2020-08-06 19:00:00 18.8 3 Norte 13 Norte 0 -- -- 83
2020-08-06 18:00:00 19.6 5 Noroeste 14 Nordeste 0 -- -- 81
2020-08-06 17:00:00 20.6 6 Noroeste 17 Sur 0 -- -- 79
2020-08-06 16:00:00 22.8 6 Nordeste 22 Este 0 -- -- 71
2020-08-06 15:00:00 23.1 5 Sudeste 23 Sudeste 0 -- -- 69
2020-08-06 14:00:00 23.1 8 Este 17 Este 0 -- -- 72
2020-08-06 13:00:00 22.2 8 Sudeste 16 Sudeste 0 -- -- 75
2020-08-06 12:00:00 19.3 6 Nordeste 12 Este 0 -- -- 86
2020-08-06 11:00:00 17.8 4 Este 12 Sudeste 0 -- -- 94
2020-08-06 10:00:00 17 2 Sudeste 9 Sur 0 -- -- 98
2020-08-06 09:00:00 16.5 3 Nordeste 10 Sudeste 0 -- -- 99
2020-08-06 08:00:00 16.2 4 Este 16 Sudeste 0.2 -- -- 99
2020-08-06 07:00:00 16.4 4 Sudeste 13 Sudeste 0 -- -- 99
2020-08-06 06:00:00 16.4 3 Sudeste 14 Sudeste 0 -- -- 98
2020-08-06 05:00:00 16.4 2 Este 12 Sudeste 0 -- -- 97
2020-08-06 04:00:00 16.4 6 Sudeste 13 Sudeste 0 -- -- 97
2020-08-06 03:00:00 16.2 4 Nordeste 11 Este 0 -- -- 97
2020-08-06 02:00:00 16.7 4 Sudoeste 13 Sudeste 0 -- -- 97
2020-08-06 01:00:00 16.7 4 Sudeste 12 Este 0 -- -- 95
2020-08-06 00:00:00 16.8 3 Sudeste 11 Norte 0 -- -- 94
2020-08-05 23:00:00 16.9 4 Este 13 Nordeste 0 -- -- 96
2020-08-05 22:00:00 17.5 4 Sudeste 15 Nordeste 0 -- -- 92
2020-08-05 21:00:00 18 2 Sur 11 Nordeste 0 -- -- 90
2020-08-05 20:00:00 19.6 4 Noroeste 11 Norte 0 -- -- 84
2020-08-05 19:00:00 22.4 3 Nordeste 11 Este 0 -- -- 72
2020-08-05 18:00:00 23.5 4 Sudeste 12 Sudeste 0 -- -- 67
2020-08-05 17:00:00 23.9 4 Sudeste 17 Sudeste 0 -- -- 69
2020-08-05 16:00:00 23.8 6 Sudeste 14 Este 0 -- -- 70
2020-08-05 15:00:00 22.3 5 Sudeste 17 Norte 0 -- -- 73
2020-08-05 14:00:00 20.8 6 Norte 15 Sudeste 0 -- -- 79
2020-08-05 13:00:00 20.6 8 Este 15 Sudeste 0 -- -- 82
2020-08-05 12:00:00 19.4 7 Sudeste 16 Sudeste 0 -- -- 87
2020-08-05 11:00:00 17.6 8 Sudeste 16 Este 0 -- -- 99
2020-08-05 10:00:00 16.6 5 Sudeste 13 Sudeste 0 -- -- 100
2020-08-05 09:00:00 16.3 3 Nordeste 14 Este 0.2 -- -- 100
2020-08-05 08:00:00 16 6 Este 19 Sudeste 0 -- -- 100
2020-08-05 07:00:00 16 3 Sur 14 Nordeste 0 -- -- 100
2020-08-05 06:00:00 16.2 4 Sur 14 Sudeste 0 -- -- 100
2020-08-05 05:00:00 16.1 8 Sudeste 23 Sudeste 0 -- -- 100
2020-08-05 04:00:00 16.4 7 Este 16 Este 0 -- -- 100
2020-08-05 03:00:00 16.5 8 Este 24 Nordeste 0 -- -- 100
2020-08-05 02:00:00 16.5 7 Nordeste 20 Este 0 -- -- 100
2020-08-05 01:00:00 16.8 6 Sudeste 17 Sur 0 -- -- 100
2020-08-05 00:00:00 16.6 5 Oeste 17 Norte 0 -- -- 99
2020-08-04 23:00:00 16.7 6 Este 20 Nordeste 0 -- -- 99
2020-08-04 22:00:00 16.9 4 Sur 16 Noroeste 0 -- -- 98
2020-08-04 21:00:00 17 5 Sudeste 18 Este 0 -- -- 97
2020-08-04 20:00:00 17.4 4 Sudeste 20 Norte 0 -- -- 97
2020-08-04 19:00:00 18.1 4 Este 14 Nordeste 0 -- -- 93
2020-08-04 18:00:00 19.2 4 Oeste 17 Nordeste 0 -- -- 87
2020-08-04 17:00:00 19.5 4 Este 13 Sur 0 -- -- 86
2020-08-04 16:00:00 20 6 Sudeste 17 Sudeste 0 -- -- 87
2020-08-04 15:00:00 20 6 Sudeste 17 Este 0 -- -- 87
2020-08-04 14:00:00 19.3 6 Sudeste 18 Nordeste 0 -- -- 94
2020-08-04 13:00:00 17.9 5 Este 15 Sudeste 0 -- -- 100
2020-08-04 12:00:00 17.7 5 Este 18 Nordeste 0 -- -- 100
2020-08-04 11:00:00 17.4 7 Sudeste 21 Nordeste 0.4 -- -- 100
2020-08-04 10:00:00 16.8 5 Este 21 Sudeste 0.2 -- -- 100
2020-08-04 09:00:00 16.4 4 Sur 14 Nordeste 0.2 -- -- 100
2020-08-04 08:00:00 15.9 5 Sudeste 15 Sur 0 -- -- 100
2020-08-04 07:00:00 15.7 3 Sur 13 Sudoeste 0 -- -- 99
2020-08-04 06:00:00 15.6 4 Sur 19 Sudeste 0 -- -- 99
2020-08-04 05:00:00 15.5 5 Sur 19 Nordeste 0 -- -- 98
2020-08-04 04:00:00 15.7 3 Sudeste 13 Noroeste 0 -- -- 98
2020-08-04 03:00:00 16 3 Este 11 Sur 0 -- -- 98
2020-08-04 02:00:00 16 5 Sudeste 13 Nordeste 0 -- -- 98
2020-08-04 01:00:00 16.3 3 Sur 10 Noroeste 0 -- -- 97
2020-08-04 00:00:00 16.3 4 Sur 14 Sur 0 -- -- 97
2020-08-03 23:00:00 16.4 5 Nordeste 14 Nordeste 0 -- -- 95
2020-08-03 22:00:00 16.7 4 Nordeste 13 Nordeste 0 -- -- 94
2020-08-03 21:00:00 17.5 4 Norte 17 Norte 0 -- -- 91
2020-08-03 20:00:00 20.5 8 Norte 16 Nordeste 0 -- -- 72
2020-08-03 19:00:00 20.6 3 Noroeste 9 Norte 0 -- -- 80
2020-08-03 18:00:00 20.2 4 Norte 10 Noroeste 0 -- -- 82
2020-08-03 17:00:00 21.6 5 Sur 14 Este 0 -- -- 78
2020-08-03 16:00:00 20.9 4 Oeste 15 Norte 0 -- -- 82
2020-08-03 15:00:00 20.9 5 Sur 21 Sudeste 0 -- -- 82
2020-08-03 14:00:00 20.3 5 Este 17 Nordeste 0 -- -- 83
2020-08-03 13:00:00 20.3 4 Sur 17 Nordeste 0 -- -- 84
2020-08-03 12:00:00 18.5 4 Este 13 Nordeste 0 -- -- 96
2020-08-03 11:00:00 18.2 3 Sudeste 16 Nordeste 0 -- -- 99
2020-08-03 10:00:00 17.5 3 Sur 19 Este 0 -- -- 100
2020-08-03 09:00:00 16.8 6 Nordeste 20 Nordeste 0 -- -- 100
2020-08-03 08:00:00 16.7 4 Sudoeste 13 Nordeste 0 -- -- 100
2020-08-03 07:00:00 16.9 2 Sudoeste 12 Norte 0 -- -- 100
2020-08-03 06:00:00 17.1 4 Sur 14 Nordeste 0 -- -- 100
2020-08-03 05:00:00 17.2 4 Este 14 Norte 0 -- -- 100
2020-08-03 04:00:00 17.3 5 Nordeste 17 Norte 0 -- -- 99
2020-08-03 03:00:00 17.4 4 Oeste 16 Este 0 -- -- 99
2020-08-03 02:00:00 17.6 5 Este 18 Nordeste 0 -- -- 98
2020-08-03 01:00:00 17.7 3 Sudeste 14 Noroeste 0 -- -- 98
2020-08-03 00:00:00 17.8 5 Norte 12 Nordeste 0 -- -- 96
2020-08-02 23:00:00 17.8 6 Este 13 Este 0 -- -- 96
2020-08-02 22:00:00 18.2 4 Este 16 Sudeste 0 -- -- 94
2020-08-02 21:00:00 18.5 5 Este 13 Este 0 -- -- 93
2020-08-02 20:00:00 19.5 3 Sur 9 Este 0 -- -- 88
2020-08-02 19:00:00 20.7 4 Sudeste 13 Sudeste 0 -- -- 82
2020-08-02 18:00:00 21.6 3 Este 11 Norte 0 -- -- 77
2020-08-02 17:00:00 22 5 Nordeste 15 Noroeste 0 -- -- 76
2020-08-02 16:00:00 23.2 6 Oeste 15 Norte 0 -- -- 71
2020-08-02 15:00:00 25.8 5 Sur 13 Sur 0 -- -- 62
2020-08-02 14:00:00 25.7 9 Sur 18 Sudeste 0 -- -- 60
2020-08-02 13:00:00 25.9 6 Sudeste 17 Este 0 -- -- 60
2020-08-02 12:00:00 24.9 5 Sur 16 Sudeste 0 -- -- 60
2020-08-02 11:00:00 24.5 8 Sur 18 Este 0 -- -- 56
2020-08-02 10:00:00 23 7 Sur 22 Sudeste 0 -- -- 48
2020-08-02 09:00:00 21.6 8 Este 27 Este 0 -- -- 28
2020-08-02 08:00:00 17.4 5 Este 13 Nordeste 0 -- -- 75
2020-08-02 07:00:00 17.3 4 Sur 14 Este 0 -- -- 96
2020-08-02 06:00:00 17.3 5 Sur 12 Sudeste 0 -- -- 95
2020-08-02 05:00:00 17.7 3 Sudoeste 15 Nordeste 0 -- -- 91
2020-08-02 04:00:00 18.5 4 Nordeste 13 Sudoeste 0 -- -- 70
2020-08-02 03:00:00 20.8 6 Sudoeste 16 Sudoeste 0 -- -- 30
2020-08-02 02:00:00 20.9 6 Sur 15 Sudoeste 0 -- -- 26
2020-08-02 01:00:00 20.8 8 Sudoeste 19 Sur 0 -- -- 29
2020-08-02 00:00:00 20.8 6 Sur 18 Sudoeste 0 -- -- 33
2020-08-01 23:00:00 19.5 5 Sur 11 Sur 0 -- -- 65
2020-08-01 22:00:00 20.4 4 Sudeste 12 Sudeste 0 -- -- 54
2020-08-01 21:00:00 21.3 3 Noroeste 17 Norte 0 -- -- 45
2020-08-01 20:00:00 21.6 4 Norte 14 Este 0 -- -- 59
2020-08-01 19:00:00 20.9 3 Sudoeste 8 Norte 0 -- -- 87
2020-08-01 18:00:00 21.8 3 Sudeste 12 Sudeste 0 -- -- 82
2020-08-01 17:00:00 24.8 4 Sudoeste 10 Sudoeste 0 -- -- 71
2020-08-01 16:00:00 24 4 Sudeste 13 Este 0 -- -- 73
2020-08-01 15:00:00 23.4 5 Norte 17 Sudeste 0 -- -- 74
2020-08-01 14:00:00 23.9 7 Sudeste 15 Sudeste 0 -- -- 74
2020-08-01 13:00:00 23 5 Sudeste 11 Sudoeste 0 -- -- 77
2020-08-01 12:00:00 20.2 4 Norte 10 Sur 0 -- -- 87
2020-08-01 11:00:00 21 4 Sur 12 Sudeste 0 -- -- 87
2020-08-01 10:00:00 19.3 6 Sudeste 12 Sudeste 0 -- -- 99
2020-08-01 09:00:00 17.1 2 Noroeste 8 Nordeste 0 -- -- 100
2020-08-01 08:00:00 16.3 4 Oeste 7 Este 0 -- -- 100
2020-08-01 07:00:00 16.1 2 Sur 12 Sudeste 0 -- -- 100
2020-08-01 06:00:00 16.4 4 Sur 10 Sudeste 0 -- -- 100
2020-08-01 05:00:00 16.3 2 Norte 9 Noroeste 0 -- -- 100
2020-08-01 04:00:00 16.6 4 Norte 10 Norte 0 -- -- 100
2020-08-01 03:00:00 16.9 4 Norte 17 Noroeste 0 -- -- 100
2020-08-01 02:00:00 16.7 3 Nordeste 12 Norte 0 -- -- 100
2020-08-01 01:00:00 16.5 4 Noroeste 14 Norte 0 -- -- 99
2020-08-01 00:00:00 16.8 3 Sur 6 Sudeste 0 -- -- 99
2020-07-31 23:00:00 16.9 0 Calma 9 Sudeste 0 -- -- 99
2020-07-31 22:00:00 17 5 Sudeste 8 Este 0 -- -- 98
2020-07-31 21:00:00 17 0 Calma 5 Nordeste 0 -- -- 97
2020-07-31 20:00:00 17.7 3 Este 9 Sudeste 0 -- -- 94
2020-07-31 19:00:00 19 3 Sudeste 9 Sudeste 0 -- -- 88
2020-07-31 18:00:00 18.7 5 Este 13 Norte 0 -- -- 89
2020-07-31 17:00:00 20 5 Sudeste 11 Nordeste 0 -- -- 85
2020-07-31 16:00:00 19.5 5 Norte 11 Nordeste 0 -- -- 88
2020-07-31 15:00:00 19.9 5 Sudeste 13 Sudeste 0 -- -- 85
2020-07-31 14:00:00 18.8 3 Sudeste 17 Sudeste 0 -- -- 88
2020-07-31 13:00:00 18.1 4 Este 11 Este 0 -- -- 90
2020-07-31 12:00:00 18.2 5 Sudeste 14 Este 0 -- -- 90
2020-07-31 11:00:00 17.9 8 Sudeste 17 Este 0 -- -- 90
2020-07-31 10:00:00 16.9 4 Sudeste 11 Este 0 -- -- 96
2020-07-31 09:00:00 16.2 3 Sudeste 13 Noroeste 0 -- -- 98
2020-07-31 08:00:00 15.8 3 Norte 12 Este 0 -- -- 98
2020-07-31 07:00:00 15.6 4 Nordeste 13 Este 0 -- -- 97
2020-07-31 06:00:00 15.7 7 Sudeste 15 Sudeste 0 -- -- 96
2020-07-31 05:00:00 15.6 6 Sudeste 14 Nordeste 0 -- -- 96
2020-07-31 04:00:00 15.6 4 Sudeste 12 Sudeste 0 -- -- 96
2020-07-31 03:00:00 15.8 5 Sudeste 12 Sudeste 0 -- -- 95
2020-07-31 02:00:00 16 6 Sudeste 13 Este 0 -- -- 94
2020-07-31 01:00:00 16.2 7 Sudeste 17 Este 0 -- -- 94
2020-07-31 00:00:00 16.3 7 Sudeste 14 Sudeste 0 -- -- 94
2020-07-30 23:00:00 16.3 4 Este 15 Este 0 -- -- 94
2020-07-30 22:00:00 16.4 4 Sur 12 Nordeste 0 -- -- 94
2020-07-30 21:00:00 17 3 Sudeste 15 Sudeste 0 -- -- 92
2020-07-30 20:00:00 17.3 3 Norte 10 Nordeste 0 -- -- 90
2020-07-30 19:00:00 18 6 Norte 15 Sudeste 0 -- -- 86
2020-07-30 18:00:00 18.8 6 Sudeste 17 Sudeste 0 -- -- 80
2020-07-30 17:00:00 19.4 6 Este 19 Este 0 -- -- 80
2020-07-30 16:00:00 21.1 5 Nordeste 18 Nordeste 0 -- -- 73
2020-07-30 15:00:00 21.8 6 Sudeste 23 Sudeste 0 -- -- 70
2020-07-30 14:00:00 21.1 6 Sudeste 28 Sudeste 0 -- -- 70
2020-07-30 13:00:00 20.1 8 Sudeste 18 Sudeste 0 -- -- 76
2020-07-30 12:00:00 17.6 5 Sudeste 11 Nordeste 0 -- -- 86
2020-07-30 11:00:00 17 7 Sudeste 22 Este 0 -- -- 91
2020-07-30 10:00:00 16.5 8 Sudeste 17 Este 0 -- -- 93
2020-07-30 09:00:00 15.6 7 Sudeste 17 Sudeste 0 -- -- 94
2020-07-30 08:00:00 15.3 3 Sur 12 Este 0 -- -- 97
2020-07-30 07:00:00 15.2 4 Sur 10 Nordeste 0 -- -- 96
2020-07-30 06:00:00 15.4 3 Sur 11 Sudeste 0 -- -- 97
2020-07-30 05:00:00 16 2 Sudeste 14 Este 0 -- -- 97
2020-07-30 04:00:00 15.7 3 Sur 13 Nordeste 0 -- -- 95
2020-07-30 03:00:00 15.8 7 Este 18 Sudeste 0 -- -- 96
2020-07-30 02:00:00 16.1 4 Sudeste 18 Sudeste 0 -- -- 95
2020-07-30 01:00:00 16.1 5 Sudeste 17 Nordeste 0 -- -- 95
2020-07-30 00:00:00 16 4 Sudeste 14 Este 0 -- -- 94
2020-07-29 23:00:00 16.3 5 Sudoeste 15 Oeste 0 -- -- 95
2020-07-29 22:00:00 16.4 5 Sur 15 Sudeste 0 -- -- 95
2020-07-29 21:00:00 16.8 6 Sudoeste 19 Nordeste 0 -- -- 94
2020-07-29 20:00:00 17.7 4 Oeste 14 Sudeste 0 -- -- 89
2020-07-29 19:00:00 18.4 4 Sudeste 18 Este 0 -- -- 87
2020-07-29 18:00:00 19.7 5 Nordeste 15 Norte 0 -- -- 80
2020-07-29 17:00:00 20.7 5 Sudoeste 17 Este 0 -- -- 77
2020-07-29 16:00:00 20.3 5 Este 23 Nordeste 0 -- -- 80
2020-07-29 15:00:00 20.4 5 Sudeste 18 Este 0 -- -- 77
2020-07-29 14:00:00 19.5 5 Oeste 17 Este 0 -- -- 82
2020-07-29 13:00:00 18.7 5 Este 21 Este 0 -- -- 86
2020-07-29 12:00:00 18.2 5 Sudeste 18 Nordeste 0 -- -- 85
2020-07-29 11:00:00 17.2 6 Sudeste 19 Nordeste 0 -- -- 92
2020-07-29 10:00:00 16.3 3 Sudeste 13 Nordeste 0 -- -- 97
2020-07-29 09:00:00 15.8 5 Sudeste 13 Nordeste 0 -- -- 99
2020-07-29 08:00:00 15.4 5 Sudeste 16 Norte 0 -- -- 99
2020-07-29 07:00:00 15.5 4 Sur 18 Sudeste 0 -- -- 100
2020-07-29 06:00:00 15.6 5 Sur 15 Nordeste 0 -- -- 100
2020-07-29 05:00:00 15.7 4 Sur 15 Norte 0 -- -- 100
2020-07-29 04:00:00 15.8 4 Sur 13 Sur 0 -- -- 100
2020-07-29 03:00:00 15.8 5 Sudeste 19 Sudeste 0 -- -- 99
2020-07-29 02:00:00 15.9 4 Sudoeste 14 Este 0 -- -- 100
2020-07-29 01:00:00 16.1 6 Sudeste 17 Sudeste 0 -- -- 99
2020-07-29 00:00:00 16.1 5 Este 16 Nordeste 0 -- -- 99
2020-07-28 23:00:00 16.3 5 Sudeste 22 Sudeste 0 -- -- 99
2020-07-28 22:00:00 16.4 4 Sur 13 Sudeste 0 -- -- 98
2020-07-28 21:00:00 17 5 Sur 13 Sur 0 -- -- 97
2020-07-28 20:00:00 17.3 4 Sur 12 Sudeste 0 -- -- 94
2020-07-28 19:00:00 17.9 5 Sudeste 13 Sudeste 0 -- -- 92
2020-07-28 18:00:00 18.4 5 Sur 12 Sudeste 0 -- -- 89
2020-07-28 17:00:00 19.6 5 Sudeste 17 Sudeste 0 -- -- 86
2020-07-28 16:00:00 19.7 5 Sudeste 20 Este 0 -- -- 86
2020-07-28 15:00:00 19.5 5 Sudoeste 13 Sudeste 0 -- -- 86
2020-07-28 14:00:00 18.7 3 Este 14 Sudeste 0 -- -- 88
2020-07-28 13:00:00 18.2 5 Este 18 Sudeste 0 -- -- 93
2020-07-28 12:00:00 17.7 5 Sudeste 12 Este 0 -- -- 98
2020-07-28 11:00:00 16.9 3 Sudeste 15 Este 0 -- -- 100
2020-07-28 10:00:00 16.5 8 Sudeste 15 Sudeste 0 -- -- 100
2020-07-28 09:00:00 16.1 3 Sudeste 12 Sudeste 0 -- -- 100
2020-07-28 08:00:00 16 5 Sudeste 17 Sudeste 0 -- -- 100
2020-07-28 07:00:00 16 5 Sudeste 13 Sudeste 0 -- -- 100
2020-07-28 06:00:00 16 5 Este 15 Sudeste 0 -- -- 100
2020-07-28 05:00:00 16.3 2 Sudeste 19 Este 0 -- -- 100
2020-07-28 04:00:00 16.3 4 Sudeste 14 Este 0 -- -- 99
2020-07-28 03:00:00 16.5 5 Sudeste 16 Nordeste 0 -- -- 99
2020-07-28 02:00:00 16.5 4 Este 14 Sudeste 0 -- -- 99
2020-07-28 01:00:00 16.5 4 Este 15 Norte 0 -- -- 98
2020-07-28 00:00:00 16.5 3 Sur 12 Este 0 -- -- 98
2020-07-27 23:00:00 16.5 4 Este 14 Este 0 -- -- 97
2020-07-27 22:00:00 16.7 4 Sudeste 13 Este 0 -- -- 96
2020-07-27 21:00:00 16.9 4 Sudeste 17 Este 0 -- -- 95
2020-07-27 20:00:00 17.3 3 Sudeste 11 Nordeste 0 -- -- 94
2020-07-27 19:00:00 17.8 3 Nordeste 10 Noroeste 0 -- -- 92
2020-07-27 18:00:00 18.7 4 Sudeste 15 Nordeste 0 -- -- 89
2020-07-27 17:00:00 19.2 3 Noroeste 13 Nordeste 0 -- -- 86
2020-07-27 16:00:00 19.9 5 Este 15 Sudeste 0 -- -- 85
2020-07-27 15:00:00 19.1 6 Sudeste 15 Este 0 -- -- 87
2020-07-27 14:00:00 18.4 5 Sudeste 16 Este 0 -- -- 89
2020-07-27 13:00:00 18.7 7 Sudeste 16 Este 0 -- -- 88
2020-07-27 12:00:00 18.6 7 Sudeste 18 Sudeste 0 -- -- 88
2020-07-27 11:00:00 17.6 5 Sudeste 14 Sudeste 0 -- -- 92
2020-07-27 08:00:00 15.7 3 Sur 17 Este 0 -- -- 99
2020-07-27 07:00:00 15.7 5 Sudoeste 14 Norte 0 -- -- 99
2020-07-27 06:00:00 15.4 3 Sudoeste 11 Este 0 -- -- 99
2020-07-27 05:00:00 15.4 5 Este 14 Sudeste 0 -- -- 98
2020-07-27 04:00:00 15.6 5 Sudeste 13 Nordeste 0 -- -- 98
2020-07-27 03:00:00 15.7 4 Sudeste 14 Este 0 -- -- 98
2020-07-27 02:00:00 15.8 6 Sudeste 13 Nordeste 0 -- -- 98
2020-07-27 01:00:00 15.9 4 Oeste 12 Sur 0 -- -- 98
2020-07-27 00:00:00 16.2 3 Sudeste 13 Este 0 -- -- 97
2020-07-26 23:00:00 16.4 4 Este 15 Sudeste 0 -- -- 96
2020-07-26 22:00:00 16.6 5 Sudeste 18 Sudeste 0 -- -- 96
2020-07-26 21:00:00 16.8 5 Sudeste 19 Sudeste 0 -- -- 94
2020-07-26 20:00:00 17.5 5 Sudeste 15 Este 0 -- -- 91
2020-07-26 19:00:00 18.4 4 Oeste 15 Nordeste 0 -- -- 88
2020-07-26 18:00:00 19.5 5 Sudeste 14 Sur 0 -- -- 83
2020-07-26 17:00:00 21 6 Oeste 17 Nordeste 0 -- -- 76
2020-07-26 16:00:00 21.1 6 Oeste 16 Norte 0 -- -- 74
2020-07-26 15:00:00 20.8 5 Norte 15 Este 0 -- -- 76
2020-07-26 14:00:00 19.7 5 Este 17 Sudeste 0 -- -- 84
2020-07-26 13:00:00 18 4 Sudeste 17 Sudeste 0 -- -- 90
2020-07-26 12:00:00 17.1 5 Sudeste 13 Este 0 -- -- 95
2020-07-26 11:00:00 16.7 3 Norte 13 Sur 0 -- -- 100
2020-07-26 10:00:00 16.3 3 Sur 15 Nordeste 0 -- -- 100
2020-07-26 09:00:00 15.9 4 Sudoeste 18 Este 0 -- -- 100
2020-07-26 08:00:00 15.8 4 Sur 15 Este 0 -- -- 100
2020-07-26 07:00:00 16.1 4 Sudoeste 18 Nordeste 0 -- -- 100
2020-07-26 06:00:00 16.1 6 Este 24 Norte 0 -- -- 100
2020-07-26 05:00:00 16 4 Sudeste 22 Este 0 -- -- 100
2020-07-26 04:00:00 16 5 Sudeste 21 Este 0 -- -- 100
2020-07-26 03:00:00 15.9 8 Sudeste 18 Nordeste 0 -- -- 99
2020-07-26 02:00:00 15.9 4 Sudeste 16 Sudeste 0 -- -- 99
2020-07-26 01:00:00 15.8 6 Sudeste 18 Este 0 -- -- 99
2020-07-26 00:00:00 16 6 Este 19 Nordeste 0 -- -- 98
2020-07-25 23:00:00 16.2 4 Sur 15 Nordeste 0 -- -- 97
2020-07-25 22:00:00 16.4 4 Sudeste 12 Sudeste 0 -- -- 95
2020-07-25 21:00:00 16.9 4 Sur 14 Sudeste 0 -- -- 92
2020-07-25 20:00:00 17.6 3 Sudoeste 10 Este 0 -- -- 90
2020-07-25 19:00:00 18.3 3 Noroeste 12 Este 0 -- -- 89
2020-07-25 18:00:00 19.7 3 Norte 17 Norte 0 -- -- 82
2020-07-25 17:00:00 20.7 5 Oeste 12 Norte 0 -- -- 78
2020-07-25 16:00:00 21 5 Noroeste 14 Norte 0 -- -- 79
2020-07-25 15:00:00 20.4 5 Noroeste 19 Este 0 -- -- 80
2020-07-25 14:00:00 20.5 5 Sudeste 16 Sudeste 0 -- -- 80
2020-07-25 13:00:00 19.7 5 Sudeste 14 Este 0 -- -- 84
2020-07-25 12:00:00 18.6 6 Nordeste 15 Sudeste 0 -- -- 85
2020-07-25 11:00:00 17.7 4 Nordeste 14 Norte 0 -- -- 93
2020-07-25 10:00:00 16 4 Norte 13 Nordeste 0 -- -- 100
2020-07-25 09:00:00 15.4 2 Sur 12 Nordeste 0 -- -- 100
2020-07-25 08:00:00 15.1 4 Sudeste 15 Nordeste 0 -- -- 100
2020-07-25 07:00:00 15.3 2 Sur 15 Nordeste 0 -- -- 100
2020-07-25 06:00:00 15.3 3 Sudoeste 13 Norte 0 -- -- 100
2020-07-25 05:00:00 15.2 5 Sur 14 Sudeste 0 -- -- 100
2020-07-25 04:00:00 15.4 5 Sur 22 Norte 0 -- -- 99
2020-07-25 03:00:00 15.5 5 Este 17 Sudeste 0 -- -- 99
2020-07-25 02:00:00 15.5 4 Sur 10 Sur 0 -- -- 99
2020-07-25 01:00:00 15.6 4 Sudeste 12 Este 0 -- -- 99
2020-07-25 00:00:00 15.7 3 Este 15 Noroeste 0 -- -- 99
2020-07-24 23:00:00 15.9 4 Este 15 Este 0 -- -- 97
2020-07-24 22:00:00 16.3 4 Sur 14 Este 0 -- -- 97
2020-07-24 21:00:00 16.6 5 Este 14 Este 0 -- -- 95
2020-07-24 20:00:00 17.3 4 Sudeste 12 Noroeste 0 -- -- 92
2020-07-24 19:00:00 17.9 4 Sur 12 Sudeste 0 -- -- 89
2020-07-24 18:00:00 19.4 5 Sudeste 16 Sudeste 0 -- -- 83
2020-07-24 17:00:00 19.5 4 Sur 15 Sudeste 0 -- -- 83
2020-07-24 16:00:00 19.8 4 Sudeste 14 Este 0 -- -- 81
2020-07-24 15:00:00 20.3 5 Norte 13 Norte 0 -- -- 79
2020-07-24 14:00:00 19.7 5 Este 15 Sudeste 0 -- -- 80
2020-07-24 13:00:00 19.7 5 Sudeste 13 Este 0 -- -- 84
2020-07-24 12:00:00 17.8 4 Nordeste 10 Nordeste 0 -- -- 91
2020-07-24 11:00:00 17 4 Sudeste 10 Nordeste 0 -- -- 96
2020-07-24 10:00:00 15.9 6 Noroeste 13 Nordeste 0 -- -- 99
2020-07-24 09:00:00 15.6 4 Sudeste 12 Nordeste 0 -- -- 100
2020-07-24 08:00:00 15.1 6 Este 14 Este 0 -- -- 100
2020-07-24 07:00:00 15.1 3 Sudeste 9 Sur 0 -- -- 99
2020-07-24 06:00:00 15.3 4 Sur 11 Sudeste 0 -- -- 100
2020-07-24 05:00:00 15.4 3 Sudoeste 15 Este 0 -- -- 100
2020-07-24 04:00:00 15.6 4 Este 14 Noroeste 0 -- -- 99
2020-07-24 03:00:00 15.6 2 Este 12 Este 0 -- -- 99
2020-07-24 02:00:00 15.7 5 Sudeste 13 Sudeste 0 -- -- 98
2020-07-24 01:00:00 15.8 3 Sudeste 8 Este 0 -- -- 98
2020-07-24 00:00:00 16.1 3 Sudeste 12 Este 0 -- -- 98
2020-07-23 23:00:00 16.2 4 Este 13 Sudeste 0 -- -- 97
2020-07-23 22:00:00 16.3 3 Sudeste 15 Este 0 -- -- 96
2020-07-23 21:00:00 16.8 2 Este 9 Sudeste 0 -- -- 94
2020-07-23 20:00:00 17.6 4 Sur 9 Este 0 -- -- 91
2020-07-23 19:00:00 18 3 Oeste 8 Nordeste 0 -- -- 91
2020-07-23 18:00:00 18.7 4 Este 13 Este 0 -- -- 87
2020-07-23 17:00:00 19.4 3 Sudoeste 15 Este 0 -- -- 84
2020-07-23 16:00:00 19.8 4 Este 13 Sudoeste 0 -- -- 83
2020-07-23 15:00:00 19.9 4 Nordeste 14 Sudoeste 0 -- -- 82
2020-07-23 14:00:00 19.7 4 Sur 14 Sur 0 -- -- 83
2020-07-23 13:00:00 18.7 4 Oeste 17 Sudeste 0 -- -- 88
2020-07-23 12:00:00 17.8 6 Sudeste 16 Nordeste 0 -- -- 93
2020-07-23 11:00:00 16.8 4 Sudoeste 12 Norte 0 -- -- 98
2020-07-23 10:00:00 16.4 4 Sur 12 Este 0 -- -- 99
2020-07-23 09:00:00 16 3 Sudeste 12 Sur 0 -- -- 100
2020-07-23 08:00:00 15.7 4 Sur 10 Nordeste 0 -- -- 99
2020-07-23 07:00:00 15.7 4 Sur 14 Sur 0 -- -- 99
2020-07-23 06:00:00 15.8 6 Este 12 Nordeste 0 -- -- 99
2020-07-23 05:00:00 15.9 3 Sudoeste 11 Sur 0 -- -- 99
2020-07-23 04:00:00 16.1 4 Sudoeste 15 Este 0 -- -- 98
2020-07-23 03:00:00 16.2 4 Sur 9 Este 0 -- -- 98
2020-07-23 02:00:00 16.3 4 Sudeste 14 Este 0 -- -- 98
2020-07-23 01:00:00 16.6 5 Este 14 Sudeste 0 -- -- 97
2020-07-23 00:00:00 16.5 4 Sur 12 Este 0 -- -- 96
2020-07-22 23:00:00 16.5 6 Sudeste 14 Sudeste 0 -- -- 95
2020-07-22 22:00:00 16.6 5 Sudeste 17 Este 0 -- -- 95
2020-07-22 21:00:00 16.8 4 Sudeste 17 Nordeste 0 -- -- 96
2020-07-22 20:00:00 17.3 3 Sudeste 12 Nordeste 0 -- -- 93
2020-07-22 19:00:00 17.6 3 Sur 21 Este 0 -- -- 91
2020-07-22 18:00:00 18.1 7 Este 14 Sudeste 0 -- -- 91
2020-07-22 17:00:00 19.2 5 Sudeste 15 Sudeste 0 -- -- 85
2020-07-22 16:00:00 19.2 4 Sur 12 Sur 0 -- -- 86
2020-07-22 15:00:00 19.4 5 Sudeste 22 Sudeste 0 -- -- 85
2020-07-22 14:00:00 20.6 10 Sudeste 22 Sudeste 0 -- -- 76
2020-07-22 13:00:00 20 7 Sudeste 15 Este 0 -- -- 78
2020-07-22 12:00:00 18.7 7 Sudeste 19 Este 0 -- -- 85
2020-07-22 11:00:00 17.8 5 Sudeste 16 Este 0 -- -- 89
2020-07-22 10:00:00 16.7 6 Sudeste 18 Sudeste 0 -- -- 92
2020-07-22 09:00:00 16.2 5 Sudeste 13 Este 0 -- -- 96
2020-07-22 08:00:00 15.8 6 Sudeste 19 Sudeste 0 -- -- 96
2020-07-22 07:00:00 15.8 6 Sudeste 12 Sudeste 0 -- -- 96
2020-07-22 06:00:00 16 3 Sudeste 15 Sudeste 0 -- -- 96
2020-07-22 05:00:00 15.8 4 Este 13 Nordeste 0 -- -- 96
2020-07-22 04:00:00 16.1 3 Sur 13 Norte 0 -- -- 96
2020-07-22 03:00:00 15.9 3 Este 15 Nordeste 0 -- -- 95
2020-07-22 02:00:00 16.1 5 Este 19 Este 0 -- -- 95
2020-07-22 01:00:00 16.3 5 Este 14 Nordeste 0 -- -- 95
2020-07-22 00:00:00 16.3 4 Sudoeste 13 Sudeste 0 -- -- 94
2020-07-21 23:00:00 16.3 5 Este 14 Sudeste 0 -- -- 94
2020-07-21 22:00:00 16.5 4 Este 10 Nordeste 0 -- -- 92
2020-07-21 21:00:00 17.1 4 Sur 16 Sudeste 0 -- -- 91
2020-07-21 20:00:00 17.8 6 Sudeste 15 Sudeste 0 -- -- 86
2020-07-21 19:00:00 18.6 6 Sudeste 18 Sudeste 0 -- -- 82
2020-07-21 18:00:00 18.9 6 Sudeste 18 Sudeste 0 -- -- 82
2020-07-21 17:00:00 19.7 5 Sur 14 Sudeste 0 -- -- 78
2020-07-21 16:00:00 21.3 5 Sur 19 Nordeste 0 -- -- 73
2020-07-21 15:00:00 19.1 5 Nordeste 15 Nordeste 0 -- -- 79
2020-07-21 14:00:00 18.8 5 Sudeste 22 Sudeste 0 -- -- 84
2020-07-21 13:00:00 19.4 9 Sudeste 23 Sudeste 0 -- -- 76
2020-07-21 12:00:00 17.9 9 Sudeste 22 Sudeste 0 -- -- 83
2020-07-21 11:00:00 17.1 8 Sudeste 21 Sudeste 0 -- -- 87
2020-07-21 10:00:00 16.2 6 Sudeste 17 Sudeste 0 -- -- 92
2020-07-21 09:00:00 15.6 6 Sudeste 17 Sudeste 0 -- -- 96
2020-07-21 08:00:00 15.4 9 Sudeste 19 Este 0 -- -- 97
2020-07-21 07:00:00 15.2 4 Sudeste 15 Sudeste 0 -- -- 96
2020-07-21 06:00:00 15.4 4 Sudeste 15 Este 0 -- -- 97
2020-07-21 05:00:00 15.6 4 Sudeste 17 Este 0 -- -- 97
2020-07-21 04:00:00 15.6 5 Sur 15 Nordeste 0 -- -- 97
2020-07-21 03:00:00 15.8 6 Sudeste 17 Nordeste 0 -- -- 97
2020-07-21 02:00:00 16 8 Sudeste 17 Sudeste 0 -- -- 96
2020-07-21 01:00:00 16.2 5 Sudoeste 16 Nordeste 0 -- -- 96
2020-07-21 00:00:00 16.3 4 Este 15 Este 0 -- -- 95
2020-07-20 23:00:00 16.5 5 Sur 15 Nordeste 0 -- -- 96
2020-07-20 22:00:00 16.6 3 Sudoeste 13 Sudeste 0 -- -- 96
2020-07-20 21:00:00 17 4 Sudeste 14 Este 0 -- -- 94
2020-07-20 20:00:00 17.7 3 Este 12 Este 0 -- -- 92
2020-07-20 19:00:00 18.7 5 Noroeste 15 Este 0 -- -- 86
2020-07-20 18:00:00 18.8 4 Sur 15 Sudeste 0 -- -- 84
2020-07-20 17:00:00 19.3 5 Sudeste 19 Este 0 -- -- 85
2020-07-20 16:00:00 20.2 5 Este 19 Sudeste 0 -- -- 81
2020-07-20 15:00:00 20.9 4 Sur 17 Este 0 -- -- 78
2020-07-20 14:00:00 22 5 Noroeste 16 Norte 0 -- -- 74
2020-07-20 13:00:00 21.5 4 Sur 16 Sudeste 0 -- -- 75
2020-07-20 12:00:00 18.7 5 Este 12 Nordeste 0 -- -- 87
2020-07-20 11:00:00 18.2 3 Oeste 12 Sudeste 0 -- -- 90
2020-07-20 10:00:00 17.7 4 Sur 10 Este 0 -- -- 94
2020-07-20 09:00:00 17.1 5 Sur 13 Nordeste 0 -- -- 95
2020-07-20 08:00:00 16.9 4 Sudoeste 15 Nordeste 0 -- -- 96
2020-07-20 07:00:00 16.9 4 Nordeste 14 Este 0 -- -- 93
2020-07-20 06:00:00 17.2 3 Este 13 Norte 0 -- -- 92
2020-07-20 05:00:00 17.2 4 Norte 15 Noroeste 0 -- -- 87
2020-07-20 04:00:00 17.5 11 Noroeste 17 Noroeste 0 -- -- 83
2020-07-20 03:00:00 19.6 7 Norte 17 Norte 0 -- -- 53
2020-07-20 02:00:00 20.7 8 Nordeste 24 Norte 0 -- -- 45
2020-07-20 01:00:00 20.9 8 Nordeste 24 Nordeste 0 -- -- 46
2020-07-20 00:00:00 21.3 8 Nordeste 21 Nordeste 0 -- -- 47
2020-07-19 23:00:00 21.6 9 Nordeste 20 Este 0 -- -- 48
2020-07-19 22:00:00 21.8 7 Nordeste 19 Este 0 -- -- 50
2020-07-19 21:00:00 22.5 7 Nordeste 21 Nordeste 0 -- -- 48
2020-07-19 20:00:00 25.3 5 Nordeste 17 Nordeste 0 -- -- 42
2020-07-19 19:00:00 27.7 8 Nordeste 21 Sudeste 0 -- -- 34
2020-07-19 18:00:00 28.6 5 Este 19 Este 0 -- -- 35
2020-07-19 17:00:00 29.4 6 Nordeste 15 Nordeste 0 -- -- 33
2020-07-19 16:00:00 30.2 5 Este 19 Nordeste 0 -- -- 31
2020-07-19 15:00:00 29.6 5 Este 15 Este 0 -- -- 30
2020-07-19 14:00:00 29.5 6 Nordeste 16 Nordeste 0 -- -- 30
2020-07-19 13:00:00 29.8 5 Nordeste 17 Este 0 -- -- 30
2020-07-19 12:00:00 30 5 Sudeste 17 Norte 0 -- -- 30
2020-07-19 11:00:00 27.7 6 Este 15 Sudeste 0 -- -- 30
2020-07-19 10:00:00 25.8 9 Sudeste 18 Este 0 -- -- 31
2020-07-19 09:00:00 23.4 8 Sudeste 17 Este 0 -- -- 34
2020-07-19 08:00:00 22.2 5 Sudeste 21 Sudeste 0 -- -- 32
2020-07-19 07:00:00 21.7 5 Sur 19 Este 0 -- -- 34
2020-07-19 06:00:00 21.8 4 Sudeste 21 Nordeste 0 -- -- 33
2020-07-19 05:00:00 22.2 5 Nordeste 20 Norte 0 -- -- 34
2020-07-19 04:00:00 23.5 9 Nordeste 18 Nordeste 0 -- -- 33
2020-07-19 03:00:00 23.2 6 Nordeste 20 Nordeste 0 -- -- 40
2020-07-19 02:00:00 23.3 6 Este 21 Nordeste 0 -- -- 40
2020-07-19 01:00:00 22.7 5 Este 17 Nordeste 0 -- -- 40
2020-07-19 00:00:00 21.7 3 Norte 15 Norte 0 -- -- 40
2020-07-18 23:00:00 21.8 3 Nordeste 13 Este 0 -- -- 41
2020-07-18 22:00:00 22.6 3 Sudeste 15 Este 0 -- -- 38
2020-07-18 21:00:00 24.1 3 Nordeste 21 Nordeste 0 -- -- 36
2020-07-18 20:00:00 26.5 7 Nordeste 18 Nordeste 0 -- -- 32
2020-07-18 19:00:00 29.5 6 Este 18 Este 0 -- -- 30
2020-07-18 18:00:00 30.9 4 Sudeste 15 Sudeste 0 -- -- 31
2020-07-18 17:00:00 31 4 Sur 12 Este 0 -- -- 31
2020-07-18 16:00:00 31.5 4 Sudeste 12 Oeste 0 -- -- 35
2020-07-18 15:00:00 31.6 4 Este 12 Noroeste 0 -- -- 29
2020-07-18 14:00:00 30 5 Nordeste 10 Nordeste 0 -- -- 28
2020-07-18 13:00:00 30.5 5 Norte 13 Norte 0 -- -- 29
2020-07-18 12:00:00 30.7 8 Norte 15 Norte 0 -- -- 32
2020-07-18 11:00:00 29 2 Sudoeste 8 Noroeste 0 -- -- 31
2020-07-18 10:00:00 27.1 4 Este 7 Sudeste 0 -- -- 26
2020-07-18 09:00:00 24.8 3 Sudeste 11 Este 0 -- -- 26
2020-07-18 08:00:00 23.6 5 Sudeste 13 Este 0 -- -- 26
2020-07-18 07:00:00 24.1 6 Sudoeste 13 Sudoeste 0 -- -- 20
2020-07-18 06:00:00 25.6 5 Sur 20 Sudoeste 0 -- -- 14
2020-07-18 05:00:00 25.2 4 Sur 13 Sudoeste 0 -- -- 14
2020-07-18 04:00:00 24.4 8 Sudoeste 13 Sudoeste 0 -- -- 18
2020-07-18 03:00:00 24.6 6 Sudoeste 15 Sudoeste 0 -- -- 19
2020-07-18 02:00:00 24.3 6 Sudoeste 11 Sudoeste 0 -- -- 24
2020-07-18 01:00:00 23.9 8 Sudoeste 13 Este 0 -- -- 22
2020-07-18 00:00:00 23 7 Este 14 Sudeste 0 -- -- 23
2020-07-17 23:00:00 22.8 9 Este 13 Este 0 -- -- 26
2020-07-17 22:00:00 22.9 5 Sudoeste 8 Sudoeste 0 -- -- 49
2020-07-17 21:00:00 22.7 4 Sudeste 10 Este 0 -- -- 52
2020-07-17 20:00:00 24.4 3 Nordeste 6 Norte 0 -- -- 49
2020-07-17 19:00:00 24.1 4 Norte 10 Norte 0 -- -- 67
2020-07-17 18:00:00 26.1 4 Sudeste 9 Norte 0 -- -- 60
2020-07-17 17:00:00 27.8 4 Nordeste 11 Norte 0 -- -- 53
2020-07-17 16:00:00 28.4 5 Norte 12 Norte 0 -- -- 43
2020-07-17 15:00:00 28.2 5 Norte 13 Norte 0 -- -- 47
2020-07-17 14:00:00 27.9 5 Norte 13 Norte 0 -- -- 42
2020-07-17 13:00:00 27.8 7 Norte 14 Norte 0 -- -- 47
2020-07-17 12:00:00 27.1 7 Norte 13 Norte 0 -- -- 40
2020-07-17 11:00:00 25.8 7 Norte 12 Norte 0 -- -- 41
2020-07-17 10:00:00 24.3 3 Norte 9 Noroeste 0 -- -- 60
2020-07-17 09:00:00 23 9 Noroeste 10 Noroeste 0 -- -- 34
2020-07-17 08:00:00 21.8 6 Noroeste 8 Noroeste 0 -- -- 35
2020-07-17 07:00:00 21 5 Oeste 13 Sudoeste 0 -- -- 33
2020-07-17 06:00:00 21.7 2 Nordeste 7 Sudoeste 0 -- -- 39
2020-07-17 05:00:00 23.3 2 Norte 13 Sudoeste 0 -- -- 27
2020-07-17 04:00:00 21 6 Sudoeste 10 Sudoeste 0 -- -- 30
2020-07-17 03:00:00 19.9 4 Sudoeste 11 Sudoeste 0 -- -- 37
2020-07-17 02:00:00 19.6 6 Sudoeste 12 Sudoeste 0 -- -- 41
2020-07-17 01:00:00 19.5 10 Sudoeste 15 Sudoeste 0 -- -- 44
2020-07-17 00:00:00 20.5 9 Sudoeste 15 Sudoeste 0 -- -- 43
2020-07-16 23:00:00 20.2 8 Sudoeste 14 Oeste 0 -- -- 42
2020-07-16 22:00:00 19.7 10 Sudoeste 13 Sudoeste 0 -- -- 57
2020-07-16 21:00:00 22.6 2 Oeste 5 Norte 0 -- -- 42
2020-07-16 20:00:00 24.9 3 Noroeste 5 Norte 0 -- -- 52
2020-07-16 19:00:00 24.3 3 Oeste 9 Noroeste 0 -- -- 66
2020-07-16 18:00:00 24.7 3 Sudeste 12 Sur 0 -- -- 66
2020-07-16 17:00:00 24.2 6 Sur 14 Sudeste 0 -- -- 67
2020-07-16 16:00:00 23.8 8 Sudeste 16 Sudeste 0 -- -- 68
2020-07-16 15:00:00 23.9 8 Sur 17 Sudeste 0 -- -- 68
2020-07-16 14:00:00 23.4 9 Sur 15 Sudeste 0 -- -- 70
2020-07-16 13:00:00 21.9 8 Sur 17 Sudeste 0 -- -- 75
2020-07-16 12:00:00 20.8 7 Sudeste 14 Sudeste 0 -- -- 81
2020-07-16 11:00:00 17.6 3 Este 9 Sur 0 -- -- 99
2020-07-16 10:00:00 16.4 3 Sudeste 9 Este 0 -- -- 100
2020-07-16 09:00:00 15.4 2 Sudeste 6 Norte 0 -- -- 100
2020-07-16 08:00:00 15.1 2 Este 9 Nordeste 0 -- -- 100
2020-07-16 07:00:00 14.5 0 Calma 9 Sudoeste 0 -- -- 100
2020-07-16 06:00:00 14.5 3 Sudoeste 10 Sur 0 -- -- 100
2020-07-16 05:00:00 14.5 4 Sudoeste 8 Sudoeste 0 -- -- 100
2020-07-16 04:00:00 14.9 0 Calma 12 Norte 0 -- -- 100
2020-07-16 03:00:00 14.8 7 Sudoeste 13 Sudoeste 0 -- -- 99
2020-07-16 02:00:00 15.2 4 Sur 13 Sur 0 -- -- 99
2020-07-16 01:00:00 15.6 5 Este 13 Este 0 -- -- 100
2020-07-16 00:00:00 15.9 3 Sudeste 11 Sudeste 0 -- -- 99
2020-07-15 23:00:00 16.1 3 Sudeste 10 Este 0 -- -- 99
2020-07-15 22:00:00 16.3 4 Sudeste 11 Sudeste 0 -- -- 98
2020-07-15 21:00:00 16.4 5 Este 14 Este 0 -- -- 98
2020-07-15 20:00:00 16.9 4 Sudeste 15 Sudeste 0 -- -- 97
2020-07-15 19:00:00 17.4 4 Sudeste 12 Sudeste 0 -- -- 96
2020-07-15 18:00:00 17.5 6 Sudeste 14 Nordeste 0 -- -- 95
2020-07-15 17:00:00 18.3 5 Sur 16 Este 0 -- -- 92
2020-07-15 16:00:00 18.8 4 Sudoeste 14 Noroeste 0 -- -- 89
2020-07-15 15:00:00 18.9 5 Este 17 Oeste 0 -- -- 85
2020-07-15 14:00:00 18.7 4 Este 18 Nordeste 0 -- -- 87
2020-07-15 13:00:00 19.1 5 Este 15 Norte 0 -- -- 83
2020-07-15 12:00:00 17.8 6 Sudeste 13 Nordeste 0 -- -- 93
2020-07-15 11:00:00 16.6 3 Sur 12 Norte 0 -- -- 100
2020-07-15 10:00:00 15.9 3 Sudoeste 12 Sudeste 0 -- -- 100
2020-07-15 09:00:00 15.5 4 Sur 13 Nordeste 0 -- -- 100
2020-07-15 08:00:00 15.3 3 Oeste 12 Oeste 0 -- -- 100
2020-07-15 07:00:00 15.3 5 Nordeste 18 Este 0 -- -- 100
2020-07-15 06:00:00 15.1 5 Este 16 Nordeste 0 -- -- 100
2020-07-15 05:00:00 15.3 4 Sur 13 Norte 0 -- -- 100
2020-07-15 04:00:00 15.5 5 Sudeste 13 Nordeste 0 -- -- 100
2020-07-15 03:00:00 15.7 6 Sudoeste 17 Este 0 -- -- 100
2020-07-15 02:00:00 15.8 7 Nordeste 22 Noroeste 0 -- -- 100
2020-07-15 01:00:00 16.1 7 Sudoeste 19 Sur 0 -- -- 100
2020-07-15 00:00:00 16.2 5 Sur 15 Sur 0 -- -- 100
2020-07-14 23:00:00 16.4 5 Noroeste 15 Sudeste 0 -- -- 99
2020-07-14 22:00:00 16.5 5 Sudeste 16 Este 0 -- -- 99
2020-07-14 21:00:00 16.6 5 Sur 11 Oeste 0 -- -- 97
2020-07-14 20:00:00 16.7 4 Sur 16 Este 0 -- -- 96
2020-07-14 19:00:00 17.3 6 Sur 16 Nordeste 0 -- -- 94
2020-07-14 18:00:00 17.7 5 Sudeste 17 Nordeste 0 -- -- 92
2020-07-14 17:00:00 18.3 5 Oeste 13 Nordeste 0 -- -- 87
2020-07-14 16:00:00 18.9 5 Sur 14 Este 0 -- -- 86
2020-07-14 15:00:00 18.9 6 Oeste 14 Oeste 0 -- -- 84
2020-07-14 14:00:00 18.8 5 Noroeste 14 Norte 0 -- -- 84
2020-07-14 13:00:00 18.2 7 Norte 18 Norte 0 -- -- 84
2020-07-14 12:00:00 16.9 4 Sur 12 Sudoeste 0 -- -- 91
2020-07-14 11:00:00 16.1 4 Sudoeste 10 Este 0 -- -- 98
2020-07-14 10:00:00 15.6 3 Sudeste 14 Norte 0 -- -- 99
2020-07-14 09:00:00 14.8 4 Sudoeste 12 Oeste 0 -- -- 99
2020-07-14 08:00:00 14.7 3 Sur 13 Norte 0 -- -- 99
2020-07-14 07:00:00 14.8 3 Nordeste 12 Sudeste 0 -- -- 99
2020-07-14 06:00:00 14.8 3 Sudeste 11 Nordeste 0 -- -- 99
2020-07-14 05:00:00 15 3 Sur 12 Este 0 -- -- 99
2020-07-14 04:00:00 15 4 Este 14 Este 0 -- -- 98
2020-07-14 03:00:00 15.1 5 Noroeste 16 Nordeste 0 -- -- 96
2020-07-14 02:00:00 15.2 4 Sudeste 10 Nordeste 0 -- -- 96
2020-07-14 01:00:00 15.6 5 Sudeste 13 Norte 0 -- -- 96
2020-07-14 00:00:00 15.9 4 Nordeste 12 Sudeste 0 -- -- 96
2020-07-13 23:00:00 16.2 3 Sudeste 15 Nordeste 0 -- -- 96
2020-07-13 22:00:00 16.6 3 Sudeste 14 Nordeste 0 -- -- 95
2020-07-13 21:00:00 17.1 4 Sur 10 Oeste 0 -- -- 92
2020-07-13 20:00:00 18 3 Sudeste 10 Norte 0 -- -- 89
2020-07-13 19:00:00 20.1 3 Este 11 Nordeste 0 -- -- 79
2020-07-13 18:00:00 22.9 4 Sur 9 Sur 0 -- -- 69
2020-07-13 17:00:00 24.3 5 Sudoeste 13 Sudoeste 0 -- -- 66
2020-07-13 16:00:00 24.2 6 Sudeste 12 Sudeste 0 -- -- 66
2020-07-13 15:00:00 23.3 6 Sur 13 Sudeste 0 -- -- 69
2020-07-13 14:00:00 23 7 Sudeste 14 Sur 0 -- -- 70
2020-07-13 13:00:00 22.5 8 Sur 14 Sudeste 0 -- -- 72
2020-07-13 12:00:00 20.4 7 Sur 13 Sur 0 -- -- 79
2020-07-13 11:00:00 17.3 5 Norte 11 Norte 0 -- -- 95
2020-07-13 10:00:00 16.4 3 Norte 8 Norte 0 -- -- 99
2020-07-13 09:00:00 15.8 0 Calma 6 Norte 0 -- -- 100
2020-07-13 08:00:00 15.3 0 Calma 11 Norte 0 -- -- 99
2020-07-13 07:00:00 14.9 3 Nordeste 11 Nordeste 0 -- -- 98
2020-07-13 06:00:00 14.6 4 Oeste 13 Oeste 0 -- -- 77
2020-07-13 05:00:00 15.2 3 Sudoeste 10 Nordeste 0 -- -- 98
2020-07-13 04:00:00 15.3 2 Sur 8 Sudoeste 0 -- -- 97
2020-07-13 03:00:00 15.7 3 Sudeste 12 Este 0 -- -- 97
2020-07-13 02:00:00 15.7 3 Sudoeste 9 Sudeste 0 -- -- 96
2020-07-13 01:00:00 15.9 2 Sudeste 8 Este 0 -- -- 97
2020-07-13 00:00:00 15.9 2 Sudoeste 9 Sudoeste 0 -- -- 97
2020-07-12 23:00:00 16.6 5 Sudeste 10 Este 0 -- -- 98
2020-07-12 22:00:00 16.8 3 Este 12 Sudeste 0 -- -- 96
2020-07-12 21:00:00 17.2 3 Este 8 Este 0 -- -- 96
2020-07-12 20:00:00 17.8 2 Nordeste 12 Sudeste 0 -- -- 94
2020-07-12 19:00:00 19 3 Este 13 Este 0 -- -- 89
2020-07-12 18:00:00 21.2 4 Este 13 Sudeste 0 -- -- 77
2020-07-12 17:00:00 22.4 5 Sudeste 13 Este 0 -- -- 74
2020-07-12 16:00:00 23.3 6 Sur 15 Sudeste 0 -- -- 70
2020-07-12 15:00:00 22.4 6 Este 15 Sudeste 0 -- -- 72
2020-07-12 14:00:00 20.8 5 Nordeste 13 Norte 0 -- -- 79
2020-07-12 13:00:00 19.3 5 Norte 14 Sudeste 0 -- -- 85
2020-07-12 12:00:00 18.2 4 Este 10 Nordeste 0 -- -- 87
2020-07-12 11:00:00 17.4 4 Este 10 Norte 0 -- -- 92
2020-07-12 10:00:00 16.6 3 Este 10 Norte 0 -- -- 96
2020-07-12 09:00:00 15.5 4 Sudoeste 9 Sur 0 -- -- 96
2020-07-12 08:00:00 15.4 4 Sudeste 12 Sur 0 -- -- 98
2020-07-12 07:00:00 15.5 4 Sudeste 14 Sudeste 0 -- -- 98
2020-07-12 06:00:00 15.6 4 Sudeste 11 Norte 0 -- -- 98
2020-07-12 05:00:00 15.7 3 Sudeste 10 Este 0 -- -- 98
2020-07-12 04:00:00 15.7 5 Sudeste 13 Este 0 -- -- 97
2020-07-12 03:00:00 15.7 5 Sudeste 14 Sudeste 0 -- -- 98
2020-07-12 02:00:00 15.7 9 Sudeste 16 Sudeste 0 -- -- 97
2020-07-12 01:00:00 15.7 5 Sudeste 13 Este 0 -- -- 97
2020-07-12 00:00:00 15.8 5 Sudeste 21 Sudeste 0 -- -- 97
2020-07-11 23:00:00 16 4 Sudeste 12 Este 0 -- -- 96
2020-07-11 22:00:00 16.2 3 Sudeste 11 Sudeste 0 -- -- 95
2020-07-11 21:00:00 16.7 3 Sudeste 17 Sudeste 0 -- -- 93
2020-07-11 20:00:00 17.2 4 Sudeste 14 Sudeste 0 -- -- 92
2020-07-11 19:00:00 18 5 Sudeste 17 Este 0 -- -- 89
2020-07-11 18:00:00 18.6 5 Sudeste 16 Sudeste 0 -- -- 87
2020-07-11 17:00:00 19.2 6 Este 18 Sudeste 0 -- -- 83
2020-07-11 16:00:00 20.1 9 Sudeste 19 Este 0 -- -- 81
2020-07-11 15:00:00 19.3 5 Este 17 Este 0 -- -- 85
2020-07-11 14:00:00 19.1 5 Sudoeste 17 Este 0 -- -- 85
2020-07-11 13:00:00 18.6 5 Sudeste 19 Sudeste 0 -- -- 87
2020-07-11 12:00:00 17.9 5 Sudeste 15 Nordeste 0 -- -- 91
2020-07-11 11:00:00 16.5 5 Este 14 Este 0 -- -- 98
2020-07-11 10:00:00 16.2 4 Sudeste 15 Este 0 -- -- 99
2020-07-11 09:00:00 15.9 7 Sudeste 19 Este 0 -- -- 100
2020-07-11 08:00:00 15.6 7 Nordeste 17 Este 0 -- -- 100
2020-07-11 07:00:00 15.4 8 Este 15 Este 0 -- -- 99
2020-07-11 06:00:00 15.6 5 Este 14 Nordeste 0 -- -- 99
2020-07-11 05:00:00 15.4 4 Sudeste 17 Nordeste 0 -- -- 99
2020-07-11 04:00:00 15.5 4 Sudoeste 19 Nordeste 0 -- -- 98
2020-07-11 03:00:00 15.7 4 Sudeste 13 Este 0 -- -- 98
2020-07-11 02:00:00 15.7 4 Sudeste 15 Este 0 -- -- 98
2020-07-11 01:00:00 15.8 6 Este 24 Este 0 -- -- 97
2020-07-11 00:00:00 15.9 4 Sudeste 13 Oeste 0 -- -- 97
2020-07-10 23:00:00 16.1 6 Sudeste 12 Nordeste 0 -- -- 96
2020-07-10 22:00:00 16.3 4 Sudeste 17 Noroeste 0 -- -- 94
2020-07-10 21:00:00 16.3 3 Norte 14 Sudeste 0 -- -- 93
2020-07-10 20:00:00 16.7 4 Sudeste 20 Este 0 -- -- 92
2020-07-10 19:00:00 17.8 7 Sudeste 18 Este 0 -- -- 89
2020-07-10 18:00:00 18.7 6 Sudeste 18 Sudeste 0 -- -- 84
2020-07-10 17:00:00 20.2 8 Sudeste 19 Este 0 -- -- 77
2020-07-10 16:00:00 20.4 5 Sudeste 17 Sudeste 0 -- -- 76
2020-07-10 15:00:00 20.9 7 Sudeste 15 Sudeste 0 -- -- 74
2020-07-10 14:00:00 21.7 6 Sudeste 19 Este 0 -- -- 71
2020-07-10 13:00:00 19.6 10 Sudeste 19 Sudeste 0 -- -- 81
2020-07-10 12:00:00 18 6 Sudeste 16 Nordeste 0 -- -- 89
2020-07-10 11:00:00 17.1 5 Sudeste 16 Nordeste 0 -- -- 93
2020-07-10 10:00:00 16.2 4 Sudeste 17 Sudeste 0 -- -- 98
2020-07-10 09:00:00 16 7 Sudeste 17 Nordeste 0 -- -- 99
2020-07-10 08:00:00 15.6 4 Sudeste 15 Este 0 -- -- 98
2020-07-10 07:00:00 15.5 3 Sudeste 15 Nordeste 0 -- -- 98
2020-07-10 06:00:00 15.6 7 Sudeste 15 Este 0 -- -- 98
2020-07-10 05:00:00 15.5 3 Este 17 Este 0 -- -- 97
2020-07-10 04:00:00 15.5 8 Este 15 Este 0 -- -- 98
2020-07-10 03:00:00 15.7 4 Nordeste 13 Este 0 -- -- 96
2020-07-10 02:00:00 16.1 3 Norte 13 Sudeste 0 -- -- 96
2020-07-10 01:00:00 16 4 Sudeste 10 Nordeste 0 -- -- 96
2020-07-10 00:00:00 16 4 Este 14 Nordeste 0 -- -- 96
2020-07-09 23:00:00 16 5 Este 16 Este 0 -- -- 94
2020-07-09 22:00:00 16.5 3 Sur 10 Este 0 -- -- 87
2020-07-09 21:00:00 17.9 3 Nordeste 12 Nordeste 0 -- -- 82
2020-07-09 20:00:00 27 3 Sudoeste 6 Sudeste 0 -- -- 52
2020-07-09 19:00:00 33.8 3 Sudeste 9 Este 0 -- -- 35
2020-07-09 18:00:00 31.7 4 Sudeste 12 Sudeste 0 -- -- 26
2020-07-09 17:00:00 30.2 5 Sudeste 13 Este 0 -- -- 33
2020-07-09 16:00:00 29.2 6 Sur 21 Sudeste 0 -- -- 36
2020-07-09 15:00:00 29.3 7 Sur 28 Este 0 -- -- 31
2020-07-09 14:00:00 29.3 7 Sudeste 27 Este 0 -- -- 29
2020-07-09 13:00:00 28.7 8 Sudeste 20 Sudeste 0 -- -- 25
2020-07-09 12:00:00 26.4 9 Sur 23 Sudeste 0 -- -- 29
2020-07-09 11:00:00 23.5 8 Sudeste 20 Sudeste 0 -- -- 42
2020-07-09 10:00:00 19.6 6 Nordeste 18 Este 0 -- -- 69
2020-07-09 09:00:00 19.6 7 Este 26 Sur 0 -- -- 63
2020-07-09 08:00:00 19.3 6 Sudeste 17 Sur 0 -- -- 51
2020-07-09 07:00:00 18.6 5 Sudoeste 21 Sudoeste 0 -- -- 55
2020-07-09 06:00:00 20.5 7 Sur 24 Este 0 -- -- 41
2020-07-09 05:00:00 21.9 11 Sudeste 23 Este 0 -- -- 38
2020-07-09 04:00:00 22.3 8 Sudeste 25 Sudeste 0 -- -- 31
2020-07-09 03:00:00 21.9 10 Sur 24 Sur 0 -- -- 34
2020-07-09 02:00:00 21.8 7 Sudeste 18 Este 0 -- -- 39
2020-07-09 01:00:00 23.5 9 Sur 30 Sudeste 0 -- -- 34
2020-07-09 00:00:00 23.3 11 Sudeste 29 Sudeste 0 -- -- 35
2020-07-08 23:00:00 23.7 9 Sudeste 28 Sudeste 0 -- -- 33
2020-07-08 22:00:00 24.6 7 Sudeste 24 Sudeste 0 -- -- 30
2020-07-08 21:00:00 24.6 7 Sur 18 Sudeste 0 -- -- 34
2020-07-08 20:00:00 29.4 5 Sur 20 Nordeste 0 -- -- 29
2020-07-08 19:00:00 34.4 8 Sudeste 19 Este 0 -- -- 22
2020-07-08 18:00:00 32.9 7 Sudeste 20 Sur 0 -- -- 24
2020-07-08 17:00:00 33.4 5 Sudeste 13 Sudeste 0 -- -- 26
2020-07-08 16:00:00 33 6 Sudeste 24 Este 0 -- -- 21
2020-07-08 15:00:00 32.4 6 Nordeste 17 Nordeste 0 -- -- 16
2020-07-08 14:00:00 31.9 8 Norte 25 Nordeste 0 -- -- 21
2020-07-08 13:00:00 30.2 5 Norte 10 Nordeste 0 -- -- 34
2020-07-08 12:00:00 29 4 Noroeste 8 Norte 0 -- -- 44
2020-07-08 11:00:00 28.1 4 Sudoeste 10 Este 0 -- -- 43
2020-07-08 10:00:00 29 2 Sur 12 Sur 0 -- -- 26
2020-07-08 09:00:00 26.5 6 Sudeste 10 Sudeste 0 -- -- 24
2020-07-08 08:00:00 25.1 6 Sur 15 Sudoeste 0 -- -- 24
2020-07-08 07:00:00 26.5 8 Sur 23 Este 0 -- -- 22
2020-07-08 06:00:00 25.6 10 Sur 19 Sur 0 -- -- 24
2020-07-08 05:00:00 26.3 10 Sudeste 24 Sudeste 0 -- -- 24
2020-07-08 04:00:00 26 7 Sur 25 Sudoeste 0 -- -- 26
2020-07-08 03:00:00 26.1 5 Sur 22 Este 0 -- -- 28
2020-07-08 02:00:00 26.5 9 Sur 20 Sudeste 0 -- -- 28
2020-07-08 01:00:00 26.3 9 Sur 19 Sudeste 0 -- -- 29
2020-07-08 00:00:00 25.7 7 Sudoeste 17 Sudoeste 0 -- -- 30